Time;durP1;ratioP1;P1;durP2;ratioP2;P2;SDS_P1;SDS_P2;PMS_P1;PMS_P2;Temp;Humidity;BMP_temperature;BMP_pressure;BME280_temperature;BME280_humidity;BME280_pressure;Samples;Min_cycle;Max_cycle;Signal;HPM_P1;HPM_P2
2023/04/04 00:02:03;;;;;;;4.32;2.40;;;;;;;;;;5051869;28;20101;-66
2023/04/04 00:04:29;;;;;;;4.45;2.78;;;;;;;;;;5060033;28;20040;-67
2023/04/04 00:06:56;;;;;;;6.25;2.78;;;;;;;;;;5023431;28;20048;-66
2023/04/04 00:09:22;;;;;;;4.47;2.45;;;;;;;;;;5046244;28;20044;-67
2023/04/04 00:11:48;;;;;;;8.25;2.58;;;;;;;;;;5048077;28;20041;-66
2023/04/04 00:14:14;;;;;;;4.40;2.47;;;;;;;;;;5021993;28;20052;-66
2023/04/04 00:16:41;;;;;;;6.25;2.90;;;;;;;;;;5047938;28;20372;-66
2023/04/04 00:19:07;;;;;;;7.55;2.53;;;;;;;;;;5026189;28;20804;-66
2023/04/04 00:21:33;;;;;;;8.32;3.60;;;;;;;;;;5040835;28;20071;-67
2023/04/04 00:24:00;;;;;;;4.22;2.63;;;;;;;;;;5059253;28;20084;-66
2023/04/04 00:26:26;;;;;;;3.45;2.00;;;;;;;;;;5039211;28;20036;-67
2023/04/04 00:28:52;;;;;;;7.28;3.17;;;;;;;;;;5015973;28;20169;-66
2023/04/04 00:31:18;;;;;;;3.72;2.28;;;;;;;;;;5042069;28;20590;-67
2023/04/04 00:33:45;;;;;;;5.78;2.63;;;;;;;;;;5055145;28;20124;-67
2023/04/04 00:36:11;;;;;;;5.20;2.70;;;;;;;;;;5030179;28;20040;-67
2023/04/04 00:38:37;;;;;;;8.05;2.55;;;;;;;;;;5032967;28;20043;-66
2023/04/04 00:41:05;;;;;;;7.07;2.38;;;;;;;;;;5052641;28;20402;-67
2023/04/04 00:43:32;;;;;;;5.28;3.17;;;;;;;;;;5049413;28;20051;-67
2023/04/04 00:45:58;;;;;;;6.47;2.50;;;;;;;;;;5047939;28;20033;-67
2023/04/04 00:48:25;;;;;;;5.10;2.67;;;;;;;;;;5055654;28;20116;-67
2023/04/04 00:50:51;;;;;;;5.57;3.30;;;;;;;;;;5049811;28;20102;-67
2023/04/04 00:53:17;;;;;;;6.18;2.67;;;;;;;;;;5057586;28;20048;-67
2023/04/04 00:55:43;;;;;;;8.55;3.20;;;;;;;;;;5037263;28;20048;-68
2023/04/04 00:58:10;;;;;;;6.20;2.85;;;;;;;;;;5034090;28;20251;-67
2023/04/04 01:00:36;;;;;;;5.57;2.35;;;;;;;;;;5041932;28;20744;-68
2023/04/04 01:03:04;;;;;;;7.95;2.92;;;;;;;;;;5053614;28;20073;-67
2023/04/04 01:05:33;;;;;;;5.55;3.10;;;;;;;;;;5014203;28;20060;-67
2023/04/04 01:08:00;;;;;;;3.92;2.47;;;;;;;;;;5033776;28;20425;-67
2023/04/04 01:10:26;;;;;;;7.05;2.78;;;;;;;;;;5056046;28;20106;-67
2023/04/04 01:12:52;;;;;;;4.35;3.08;;;;;;;;;;5051370;28;20037;-67
2023/04/04 01:15:19;;;;;;;3.47;2.55;;;;;;;;;;5049027;28;20686;-67
2023/04/04 01:17:45;;;;;;;3.72;2.50;;;;;;;;;;5049238;28;20040;-67
2023/04/04 01:20:14;;;;;;;6.70;2.63;;;;;;;;;;5044127;28;20037;-67
2023/04/04 01:22:41;;;;;;;3.90;2.42;;;;;;;;;;5032715;28;20072;-67
2023/04/04 01:25:08;;;;;;;4.70;2.60;;;;;;;;;;5029281;28;20094;-67
2023/04/04 01:27:34;;;;;;;8.95;3.85;;;;;;;;;;5017715;28;20048;-67
2023/04/04 01:30:02;;;;;;;5.15;2.83;;;;;;;;;;5049049;28;20037;-67
2023/04/04 01:32:40;;;;;;;4.57;3.20;;;;;;;;;;5032687;28;20036;-67
2023/04/04 01:35:20;;;;;;;7.78;2.83;;;;;;;;;;5042927;28;20044;-67
2023/04/04 01:37:58;;;;;;;5.10;2.88;;;;;;;;;;5034659;28;20541;-67
2023/04/04 01:40:27;;;;;;;4.70;2.83;;;;;;;;;;5046722;28;20277;-68
2023/04/04 01:42:53;;;;;;;5.95;3.20;;;;;;;;;;5032853;28;20060;-67
2023/04/04 01:45:21;;;;;;;5.35;3.03;;;;;;;;;;5031589;28;20033;-67
2023/04/04 01:47:48;;;;;;;5.28;3.08;;;;;;;;;;5055315;28;20044;-67
2023/04/04 01:50:14;;;;;;;4.55;3.15;;;;;;;;;;5053776;28;20094;-67
2023/04/04 01:52:40;;;;;;;5.63;3.30;;;;;;;;;;5048385;28;20525;-67
2023/04/04 01:55:07;;;;;;;5.88;3.08;;;;;;;;;;5050308;28;20144;-67
2023/04/04 01:57:33;;;;;;;7.07;3.22;;;;;;;;;;5053852;28;20051;-67
2023/04/04 02:00:00;;;;;;;5.30;3.28;;;;;;;;;;5052614;28;20076;-67
2023/04/04 02:02:26;;;;;;;5.72;3.60;;;;;;;;;;5050292;28;20487;-67
2023/04/04 02:04:52;;;;;;;6.43;3.70;;;;;;;;;;5031467;28;20036;-68
2023/04/04 02:07:19;;;;;;;7.28;4.28;;;;;;;;;;5057650;28;20637;-67
2023/04/04 02:09:45;;;;;;;6.30;3.35;;;;;;;;;;5051562;28;20421;-67
2023/04/04 02:12:11;;;;;;;7.38;3.22;;;;;;;;;;5049670;28;20450;-68
2023/04/04 02:14:37;;;;;;;6.25;4.13;;;;;;;;;;5058334;28;20041;-67
2023/04/04 02:17:04;;;;;;;7.90;3.60;;;;;;;;;;5054701;28;20482;-68
2023/04/04 02:19:30;;;;;;;6.75;4.18;;;;;;;;;;5045664;28;20048;-67
2023/04/04 02:21:56;;;;;;;7.82;4.78;;;;;;;;;;5048358;28;20100;-67
2023/04/04 02:24:22;;;;;;;6.22;4.25;;;;;;;;;;5037077;28;20395;-67
2023/04/04 02:26:48;;;;;;;7.78;3.80;;;;;;;;;;5038944;28;20040;-67
2023/04/04 02:29:15;;;;;;;9.70;5.25;;;;;;;;;;5047056;28;20041;-68
2023/04/04 02:31:41;;;;;;;6.28;4.45;;;;;;;;;;5047601;28;20126;-67
2023/04/04 02:34:08;;;;;;;8.98;3.65;;;;;;;;;;5049709;28;20029;-67
2023/04/04 02:36:34;;;;;;;7.00;3.85;;;;;;;;;;5054175;28;20056;-67
2023/04/04 02:39:01;;;;;;;6.25;4.70;;;;;;;;;;5047810;28;20069;-67
2023/04/04 02:41:27;;;;;;;7.22;4.30;;;;;;;;;;5053781;28;20503;-67
2023/04/04 02:43:54;;;;;;;7.45;3.85;;;;;;;;;;5031116;28;20256;-67
2023/04/04 02:46:20;;;;;;;6.50;3.78;;;;;;;;;;5056770;28;20095;-67
2023/04/04 02:48:46;;;;;;;7.45;4.28;;;;;;;;;;5053428;28;20040;-67
2023/04/04 02:51:12;;;;;;;6.07;3.63;;;;;;;;;;5048813;28;20060;-67
2023/04/04 02:53:38;;;;;;;7.05;4.03;;;;;;;;;;5056460;28;20071;-67
2023/04/04 02:56:04;;;;;;;6.78;4.55;;;;;;;;;;5037328;28;20094;-67
2023/04/04 02:58:31;;;;;;;6.43;4.28;;;;;;;;;;5033842;28;20040;-67
2023/04/04 03:00:57;;;;;;;5.70;4.07;;;;;;;;;;5032368;28;20099;-67
2023/04/04 03:03:23;;;;;;;5.90;4.32;;;;;;;;;;5023696;28;20505;-67
2023/04/04 03:05:50;;;;;;;7.93;3.95;;;;;;;;;;5054041;28;20041;-67
2023/04/04 03:08:16;;;;;;;7.25;4.35;;;;;;;;;;5033172;28;20048;-68
2023/04/04 03:10:44;;;;;;;10.75;4.15;;;;;;;;;;5051631;28;20041;-67
2023/04/04 03:13:10;;;;;;;7.82;3.83;;;;;;;;;;5052379;28;20038;-68
2023/04/04 03:15:36;;;;;;;7.88;4.20;;;;;;;;;;5034974;28;20481;-67
2023/04/04 03:18:02;;;;;;;6.97;4.25;;;;;;;;;;5037016;28;20048;-67
2023/04/04 03:20:30;;;;;;;8.25;3.95;;;;;;;;;;5054297;28;20029;-67
2023/04/04 03:22:57;;;;;;;9.07;3.95;;;;;;;;;;5053917;28;20052;-67
2023/04/04 03:25:23;;;;;;;6.32;3.80;;;;;;;;;;5048659;28;20041;-67
2023/04/04 03:27:49;;;;;;;7.53;4.03;;;;;;;;;;5034836;28;20109;-67
2023/04/04 03:30:15;;;;;;;9.13;4.63;;;;;;;;;;5058871;28;20098;-67
2023/04/04 03:32:41;;;;;;;6.90;4.50;;;;;;;;;;5053429;28;20467;-68
2023/04/04 03:35:08;;;;;;;8.43;4.38;;;;;;;;;;5031633;28;20061;-67
2023/04/04 03:37:34;;;;;;;7.18;4.30;;;;;;;;;;5049170;28;20082;-67
2023/04/04 03:40:00;;;;;;;8.00;3.70;;;;;;;;;;5016880;28;20755;-67
2023/04/04 03:42:27;;;;;;;7.30;4.55;;;;;;;;;;5052317;28;20029;-67
2023/04/04 03:44:53;;;;;;;7.40;3.53;;;;;;;;;;5047783;28;20029;-67
2023/04/04 03:47:19;;;;;;;11.48;3.83;;;;;;;;;;5059179;28;20032;-68
2023/04/04 03:49:46;;;;;;;9.13;4.32;;;;;;;;;;5055501;28;20467;-67
2023/04/04 03:52:12;;;;;;;6.28;3.85;;;;;;;;;;5030134;28;20051;-68
2023/04/04 03:54:40;;;;;;;6.30;3.80;;;;;;;;;;5031706;28;20047;-67
2023/04/04 03:57:07;;;;;;;7.38;4.22;;;;;;;;;;5046077;28;20047;-66
2023/04/04 03:59:33;;;;;;;7.18;3.70;;;;;;;;;;5059786;28;20045;-66
2023/04/04 04:01:59;;;;;;;9.18;4.22;;;;;;;;;;5031542;28;20048;-66
2023/04/04 04:04:26;;;;;;;5.68;3.90;;;;;;;;;;5028444;28;20029;-66
2023/04/04 04:06:52;;;;;;;7.72;4.55;;;;;;;;;;5049510;28;20078;-66
2023/04/04 04:09:18;;;;;;;10.20;3.50;;;;;;;;;;5026592;28;20111;-66
2023/04/04 04:11:44;;;;;;;7.40;3.88;;;;;;;;;;5043486;28;20095;-66
2023/04/04 04:14:10;;;;;;;8.07;4.07;;;;;;;;;;5041120;28;20045;-67
2023/04/04 04:16:40;;;;;;;7.82;3.55;;;;;;;;;;5044379;28;20064;-67
2023/04/04 04:19:06;;;;;;;7.50;4.60;;;;;;;;;;5042098;28;20033;-67
2023/04/04 04:21:32;;;;;;;6.53;3.92;;;;;;;;;;5044094;28;20090;-67
2023/04/04 04:23:58;;;;;;;8.63;4.40;;;;;;;;;;5049144;28;20087;-67
2023/04/04 04:26:25;;;;;;;7.75;4.25;;;;;;;;;;5046261;28;20452;-66
2023/04/04 04:28:51;;;;;;;8.45;3.70;;;;;;;;;;5054022;28;20463;-67
2023/04/04 04:31:17;;;;;;;5.60;4.10;;;;;;;;;;5055084;28;20037;-67
2023/04/04 04:33:43;;;;;;;6.25;3.67;;;;;;;;;;5041235;28;20033;-67
2023/04/04 04:36:10;;;;;;;6.40;4.38;;;;;;;;;;5032698;28;20398;-67
2023/04/04 04:38:36;;;;;;;6.20;3.75;;;;;;;;;;5047909;28;20445;-67
2023/04/04 04:41:02;;;;;;;9.13;4.35;;;;;;;;;;5029605;28;20785;-67
2023/04/04 04:43:28;;;;;;;7.18;3.97;;;;;;;;;;5049129;28;20475;-67
2023/04/04 04:45:55;;;;;;;6.15;4.22;;;;;;;;;;5031785;28;20088;-67
2023/04/04 04:48:21;;;;;;;6.75;3.70;;;;;;;;;;5051024;28;20478;-67
2023/04/04 04:50:47;;;;;;;7.70;5.03;;;;;;;;;;5056271;28;20144;-67
2023/04/04 04:53:14;;;;;;;6.82;3.92;;;;;;;;;;5057397;28;20159;-67
2023/04/04 04:55:41;;;;;;;7.78;4.55;;;;;;;;;;5030818;28;20040;-67
2023/04/04 04:58:09;;;;;;;6.95;4.97;;;;;;;;;;5044684;28;20314;-67
2023/04/04 05:00:36;;;;;;;6.68;4.40;;;;;;;;;;5026406;28;20056;-67
2023/04/04 05:03:05;;;;;;;6.93;4.18;;;;;;;;;;5027674;28;20045;-67
2023/04/04 05:05:32;;;;;;;8.52;4.70;;;;;;;;;;5041638;28;20395;-67
2023/04/04 05:07:59;;;;;;;7.22;4.85;;;;;;;;;;5030862;28;20120;-67
2023/04/04 05:10:25;;;;;;;8.15;4.95;;;;;;;;;;5028589;28;20220;-67
2023/04/04 05:12:51;;;;;;;8.73;4.60;;;;;;;;;;5050184;28;20048;-67
2023/04/04 05:15:17;;;;;;;10.13;4.05;;;;;;;;;;5028187;28;20033;-67
2023/04/04 05:17:43;;;;;;;9.77;4.43;;;;;;;;;;5038139;28;20041;-67
2023/04/04 05:20:10;;;;;;;7.22;4.68;;;;;;;;;;5031581;28;20514;-67
2023/04/04 05:22:36;;;;;;;9.73;5.28;;;;;;;;;;5024349;28;20499;-67
2023/04/04 05:25:02;;;;;;;9.82;5.53;;;;;;;;;;5025223;28;20056;-67
2023/04/04 05:27:28;;;;;;;8.65;5.40;;;;;;;;;;5048206;28;20040;-67
2023/04/04 05:29:54;;;;;;;8.35;5.13;;;;;;;;;;5049447;28;20565;-67
2023/04/04 05:32:21;;;;;;;8.95;5.15;;;;;;;;;;5047992;28;20041;-67
2023/04/04 05:34:47;;;;;;;12.23;6.25;;;;;;;;;;5035800;28;20060;-66
2023/04/04 05:37:13;;;;;;;6.95;4.43;;;;;;;;;;5053285;28;20036;-67
2023/04/04 05:39:39;;;;;;;8.60;4.47;;;;;;;;;;5036342;28;20080;-67
2023/04/04 05:42:05;;;;;;;6.47;4.90;;;;;;;;;;5043206;28;20049;-67
2023/04/04 05:44:32;;;;;;;6.63;4.35;;;;;;;;;;5044441;28;20029;-67
2023/04/04 05:46:58;;;;;;;6.93;4.00;;;;;;;;;;5051722;28;20118;-67
2023/04/04 05:49:24;;;;;;;7.40;4.60;;;;;;;;;;5054732;28;20541;-68
2023/04/04 05:51:51;;;;;;;7.63;4.32;;;;;;;;;;5048677;28;20055;-68
2023/04/04 05:54:17;;;;;;;7.00;4.43;;;;;;;;;;5049786;28;20036;-68
2023/04/04 05:56:43;;;;;;;8.90;4.70;;;;;;;;;;5039693;28;20040;-68
2023/04/04 05:59:09;;;;;;;5.90;4.30;;;;;;;;;;5045657;28;20227;-68
2023/04/04 06:01:36;;;;;;;9.18;4.88;;;;;;;;;;5045923;28;20041;-68
2023/04/04 06:04:02;;;;;;;4.80;3.70;;;;;;;;;;5022301;28;20375;-68
2023/04/04 06:06:31;;;;;;;7.05;4.88;;;;;;;;;;5025665;28;20040;-68
2023/04/04 06:08:57;;;;;;;5.13;3.85;;;;;;;;;;5051564;28;20117;-68
2023/04/04 06:11:23;;;;;;;7.95;3.67;;;;;;;;;;5028884;28;20036;-68
2023/04/04 06:13:51;;;;;;;9.35;4.45;;;;;;;;;;5025178;28;20536;-68
2023/04/04 06:16:17;;;;;;;6.43;4.50;;;;;;;;;;5050000;28;20483;-68
2023/04/04 06:18:44;;;;;;;6.97;4.05;;;;;;;;;;5030116;28;20481;-68
2023/04/04 06:21:10;;;;;;;6.75;3.67;;;;;;;;;;5041431;28;20037;-68
2023/04/04 06:23:36;;;;;;;5.80;3.10;;;;;;;;;;5028094;28;20068;-68
2023/04/04 06:26:03;;;;;;;4.78;3.33;;;;;;;;;;5025733;28;20042;-68
2023/04/04 06:28:29;;;;;;;5.38;2.95;;;;;;;;;;5024224;28;20041;-68
2023/04/04 06:30:55;;;;;;;5.28;3.22;;;;;;;;;;5024252;28;20375;-68
2023/04/04 06:33:21;;;;;;;7.63;3.25;;;;;;;;;;5030709;28;20109;-68
2023/04/04 06:35:47;;;;;;;5.65;3.17;;;;;;;;;;5045554;28;20068;-68
2023/04/04 06:38:13;;;;;;;7.43;3.38;;;;;;;;;;5028700;28;20080;-68
2023/04/04 06:40:39;;;;;;;8.73;4.32;;;;;;;;;;5046130;28;20095;-68
2023/04/04 06:43:05;;;;;;;10.02;4.13;;;;;;;;;;5036585;28;20467;-68
2023/04/04 06:45:34;;;;;;;6.15;3.55;;;;;;;;;;5048478;28;20041;-68
2023/04/04 06:48:01;;;;;;;8.57;3.90;;;;;;;;;;5051218;28;20041;-68
2023/04/04 06:50:31;;;;;;;6.25;2.97;;;;;;;;;;5053123;28;20049;-68
2023/04/04 06:52:58;;;;;;;5.65;3.05;;;;;;;;;;5046839;28;20599;-68
2023/04/04 06:55:26;;;;;;;6.47;2.97;;;;;;;;;;5050094;28;20033;-66
2023/04/04 06:57:52;;;;;;;6.78;3.42;;;;;;;;;;5050030;28;20573;-66
2023/04/04 07:00:18;;;;;;;8.15;3.50;;;;;;;;;;5020156;28;20051;-66
2023/04/04 07:02:44;;;;;;;5.78;3.47;;;;;;;;;;5044984;28;20076;-66
2023/04/04 07:05:12;;;;;;;7.05;3.13;;;;;;;;;;5049571;28;20060;-66
2023/04/04 07:07:38;;;;;;;4.30;3.13;;;;;;;;;;5048768;28;20391;-65
2023/04/04 07:10:05;;;;;;;4.70;3.13;;;;;;;;;;5036722;28;20064;-65
2023/04/04 07:12:32;;;;;;;4.65;3.25;;;;;;;;;;5051297;28;20049;-66
2023/04/04 07:14:58;;;;;;;6.35;3.30;;;;;;;;;;5048862;28;20045;-66
2023/04/04 07:17:24;;;;;;;4.45;3.33;;;;;;;;;;5048559;28;20036;-66
2023/04/04 07:19:50;;;;;;;3.50;2.47;;;;;;;;;;5059378;28;20079;-66
2023/04/04 07:22:16;;;;;;;6.53;3.47;;;;;;;;;;5043591;28;20033;-66
2023/04/04 07:24:42;;;;;;;4.72;2.47;;;;;;;;;;5041810;28;20040;-66
2023/04/04 07:27:08;;;;;;;6.47;3.38;;;;;;;;;;5055068;28;20047;-66
2023/04/04 07:29:35;;;;;;;7.65;2.72;;;;;;;;;;5060846;28;20070;-66
2023/04/04 07:32:01;;;;;;;10.93;3.50;;;;;;;;;;5051424;28;20181;-66
2023/04/04 07:34:28;;;;;;;5.53;3.22;;;;;;;;;;5050727;28;20082;-66
2023/04/04 07:36:54;;;;;;;7.38;2.90;;;;;;;;;;5038860;28;20086;-66
2023/04/04 07:39:21;;;;;;;4.50;2.70;;;;;;;;;;5050577;28;20083;-66
2023/04/04 07:41:47;;;;;;;6.15;2.95;;;;;;;;;;5052286;28;20045;-66
2023/04/04 07:44:13;;;;;;;5.05;2.92;;;;;;;;;;5059669;28;20048;-66
2023/04/04 07:46:39;;;;;;;8.02;2.90;;;;;;;;;;5035419;28;20044;-66
2023/04/04 07:49:06;;;;;;;5.57;3.17;;;;;;;;;;5032332;28;20120;-66
2023/04/04 07:51:34;;;;;;;8.40;2.80;;;;;;;;;;5042293;28;20481;-66
2023/04/04 07:54:01;;;;;;;4.75;2.83;;;;;;;;;;5030215;28;20501;-66
2023/04/04 07:56:27;;;;;;;6.97;2.58;;;;;;;;;;5032711;28;20041;-66
2023/04/04 07:58:54;;;;;;;5.47;2.85;;;;;;;;;;5020705;28;20038;-66
2023/04/04 08:01:20;;;;;;;5.07;3.05;;;;;;;;;;5035062;28;20052;-67
2023/04/04 08:03:48;;;;;;;5.25;3.33;;;;;;;;;;5030729;28;20045;-66
2023/04/04 08:06:15;;;;;;;6.95;2.97;;;;;;;;;;5028677;28;20061;-66
2023/04/04 08:08:41;;;;;;;6.65;3.20;;;;;;;;;;5042161;28;20394;-66
2023/04/04 08:11:08;;;;;;;6.28;2.53;;;;;;;;;;5010826;28;20048;-66
2023/04/04 08:13:34;;;;;;;7.43;3.10;;;;;;;;;;5033378;28;20045;-66
2023/04/04 08:16:00;;;;;;;5.07;3.20;;;;;;;;;;5029356;28;20161;-66
2023/04/04 08:18:26;;;;;;;3.85;2.55;;;;;;;;;;5039063;28;20415;-66
2023/04/04 08:20:53;;;;;;;7.10;2.45;;;;;;;;;;5032949;28;20391;-66
2023/04/04 08:23:19;;;;;;;8.73;4.00;;;;;;;;;;5037246;28;20474;-66
2023/04/04 08:25:46;;;;;;;4.53;2.65;;;;;;;;;;5018808;28;20037;-66
2023/04/04 08:28:12;;;;;;;6.13;2.65;;;;;;;;;;5043072;28;20151;-66
2023/04/04 08:30:38;;;;;;;4.05;2.28;;;;;;;;;;5031977;28;20044;-66
2023/04/04 08:33:05;;;;;;;7.85;2.88;;;;;;;;;;5031273;28;20538;-66
2023/04/04 08:35:31;;;;;;;6.35;2.60;;;;;;;;;;4997058;28;20045;-67
2023/04/04 08:37:57;;;;;;;4.82;3.20;;;;;;;;;;5037508;28;20486;-66
2023/04/04 08:40:23;;;;;;;5.35;2.83;;;;;;;;;;5032612;28;20036;-66
2023/04/04 08:42:50;;;;;;;5.72;2.80;;;;;;;;;;5030324;28;20037;-66
2023/04/04 08:45:18;;;;;;;4.85;2.70;;;;;;;;;;5035322;28;20039;-66
2023/04/04 08:47:45;;;;;;;3.88;2.40;;;;;;;;;;5010650;28;20307;-66
2023/04/04 08:50:11;;;;;;;5.78;2.70;;;;;;;;;;5018971;28;20052;-66
2023/04/04 08:52:40;;;;;;;5.65;3.08;;;;;;;;;;5033926;28;20495;-66
2023/04/04 08:55:08;;;;;;;5.82;3.10;;;;;;;;;;5032856;28;20045;-67
2023/04/04 08:57:35;;;;;;;5.50;3.13;;;;;;;;;;5034144;28;20083;-66
2023/04/04 09:00:04;;;;;;;8.52;3.97;;;;;;;;;;5011331;28;20036;-66
2023/04/04 09:02:52;;;;;;;8.38;3.13;;;8.40;82.50;;;;;;5016793;28;20076;-67
2023/04/04 09:05:19;;;;;;;5.82;2.92;;;6.30;99.90;;;;;;5011897;28;20049;-66
2023/04/04 09:07:45;;;;;;;7.68;2.85;;;6.30;99.90;;;;;;5027207;28;20083;-66
2023/04/04 09:10:11;;;;;;;8.05;3.22;;;;;;;;;;5012635;28;20048;-66
2023/04/04 09:12:39;;;;;;;7.30;2.72;;;;;;;;;;5031644;28;20120;-66
2023/04/04 09:15:05;;;;;;;6.38;2.55;;;;;;;;;;5030533;28;20077;-66
2023/04/04 09:17:31;;;;;;;8.15;2.80;;;;;;;;;;5031675;28;20037;-66
2023/04/04 09:20:03;;;;;;;6.57;3.00;;;;;;;;;;4996382;28;20124;-66
2023/04/04 09:22:29;;;;;;;5.95;2.90;;;;;;;;;;5032779;28;20413;-66
2023/04/04 09:24:56;;;;;;;6.28;3.00;;;;;;;;;;5032926;28;20047;-66
2023/04/04 09:27:22;;;;;;;6.85;2.13;;;;;;;;;;5030369;28;20039;-66
2023/04/04 09:29:48;;;;;;;9.00;2.83;;;;;;;;;;5012659;28;20049;-66
2023/04/04 09:32:15;;;;;;;5.60;2.50;;;;;;;;;;5013753;28;20033;-66
2023/04/04 09:34:42;;;;;;;6.68;2.50;;;;;;;;;;5035019;28;20091;-66
2023/04/04 09:37:09;;;;;;;6.65;2.83;;;;;;;;;;5031230;28;20057;-66
2023/04/04 09:39:39;;;;;;;5.15;2.58;;;;;;;;;;5033549;28;20053;-66
2023/04/04 09:42:09;;;;;;;4.32;2.08;;;;;;;;;;5029824;28;20042;-68
2023/04/04 09:44:35;;;;;;;3.13;2.28;;;;;;;;;;5028459;28;20080;-66
2023/04/04 09:47:21;;;;;;;5.38;2.50;;;;;;;;;;5014891;28;20081;-67
2023/04/04 09:49:47;;;;;;;4.95;2.90;;;;;;;;;;5032880;28;20100;-66
2023/04/04 09:52:20;;;;;;;6.78;2.80;;;;;;;;;;5043726;28;20077;-68
2023/04/04 09:55:00;;;;;;;7.00;3.25;;;;;;;;;;5046325;28;20513;-68
2023/04/04 09:57:31;;;;;;;3.67;2.10;;;;;;;;;;5054288;28;20474;-66
2023/04/04 10:00:01;;;;;;;4.38;2.50;;;;;;;;;;5050444;28;20443;-66
2023/04/04 10:02:27;;;;;;;6.13;2.75;;;;;;;;;;5030335;28;20053;-67
2023/04/04 10:04:56;;;;;;;4.43;2.63;;;;;;;;;;5048396;28;20398;-66
2023/04/04 10:07:22;;;;;;;6.80;2.70;;;;;;;;;;5052975;28;20040;-66
2023/04/04 10:09:51;;;;;;;5.20;2.15;;;;;;;;;;5031468;28;21134;-66
2023/04/04 10:12:20;;;;;;;5.25;2.20;;;;;;;;;;5047229;28;20128;-66
2023/04/04 10:14:47;;;;;;;5.22;2.78;;;;;;;;;;5049962;28;20116;-66
2023/04/04 10:17:13;;;;;;;7.35;3.95;;;;;;;;;;5052472;28;20036;-66
2023/04/04 10:19:40;;;;;;;6.72;2.85;;;;;;;;;;5047329;28;20043;-66
2023/04/04 10:22:07;;;;;;;4.05;2.88;;;;;;;;;;5046729;28;20720;-66
2023/04/04 10:24:33;;;;;;;5.05;2.60;;;;;;;;;;5049473;28;20090;-66
2023/04/04 10:26:59;;;;;;;7.60;3.28;;;;;;;;;;5050600;28;20106;-66
2023/04/04 10:29:26;;;;;;;4.28;3.00;;;;;;;;;;5048212;28;20060;-66
2023/04/04 10:32:04;;;;;;;5.05;2.47;;;;;;;;;;5043782;28;20041;-67
2023/04/04 10:35:00;;;;;;;4.72;2.78;;;6.40;99.90;;;;;;5040448;28;20041;-66
2023/04/04 10:37:30;;;;;;;6.35;3.40;;;8.20;97.60;;;;;;5049173;28;20130;-66
2023/04/04 10:40:16;;;;;;;5.05;2.90;;;8.20;98.40;;;;;;5047732;28;20481;-67
2023/04/04 10:42:45;;;;;;;4.43;2.90;;;8.20;98.50;;;;;;5044324;28;20036;-66
2023/04/04 10:45:13;;;;;;;8.50;3.55;;;;;;;;;;5029520;28;20132;-66
2023/04/04 10:47:40;;;;;;;5.32;2.97;;;;;;;;;;5001320;28;20494;-66
2023/04/04 10:50:08;;;;;;;4.25;2.53;;;;;;;;;;5054251;28;20186;-67
2023/04/04 10:52:35;;;;;;;7.47;3.30;;;;;;;;;;5044724;28;20367;-66
2023/04/04 10:55:05;;;;;;;7.10;2.90;;;8.30;98.50;;;;;;5047961;28;20075;-68
2023/04/04 10:57:32;;;;;;;5.55;2.65;;;;;;;;;;5025978;28;20441;-67
2023/04/04 11:00:09;;;;;;;3.95;2.63;;;;;;;;;;5029688;28;20382;-67
2023/04/04 11:02:45;;;;;;;7.10;3.58;;;;;;;;;;5056477;28;20078;-67
2023/04/04 11:05:17;;;;;;;5.63;3.42;;;;;;;;;;5046576;28;20067;-66
2023/04/04 11:07:45;;;;;;;6.53;3.23;;;;;;;;;;5048188;28;20048;-67
2023/04/04 11:10:15;;;;;;;4.47;3.08;;;;;;;;;;5049893;28;20318;-67
2023/04/04 11:12:44;;;;;;;6.90;3.17;;;;;;;;;;5031875;28;20041;-67
2023/04/04 11:15:12;;;;;;;6.90;3.15;;;;;;;;;;5031683;28;20486;-67
2023/04/04 11:17:54;;;;;;;6.38;2.65;;;;;;;;;;5049260;28;20051;-67
2023/04/04 11:20:22;;;;;;;8.55;3.28;;;;;;;;;;5041009;28;20128;-67
2023/04/04 11:22:49;;;;;;;5.20;2.80;;;;;;;;;;5000550;28;20053;-67
2023/04/04 11:25:24;;;;;;;6.18;3.90;;;;;;;;;;5047576;28;20044;-66
2023/04/04 11:27:55;;;;;;;5.90;3.15;;;;;;;;;;5046460;28;20076;-67
2023/04/04 11:30:21;;;;;;;5.32;3.22;;;;;;;;;;5044630;28;20487;-67
2023/04/04 11:32:48;;;;;;;8.65;3.30;;;;;;;;;;5047054;28;20052;-66
2023/04/04 11:35:14;;;;;;;5.93;3.22;;;;;;;;;;5047975;28;20405;-67
2023/04/04 11:38:01;;;;;;;5.88;3.38;;;;;;;;;;5044710;28;20052;-67
2023/04/04 11:40:38;;;;;;;10.98;4.30;;;;;;;;;;5030229;28;20044;-66
2023/04/04 11:43:08;;;;;;;6.28;3.40;;;;;;;;;;5048388;28;20043;-67
2023/04/04 11:45:36;;;;;;;5.65;3.30;;;;;;;;;;5046236;28;20242;-66
2023/04/04 11:48:05;;;;;;;5.10;3.33;;;;;;;;;;5048053;28;20102;-67
2023/04/04 11:50:35;;;;;;;4.35;3.42;;;;;;;;;;5050201;28;20132;-67
2023/04/04 11:53:04;;;;;;;5.82;3.05;;;;;;;;;;5048295;28;20558;-69
2023/04/04 11:55:31;;;;;;;5.05;2.83;;;;;;;;;;5047775;28;20059;-67
2023/04/04 11:58:04;;;;;;;7.43;3.22;;;;;;;;;;5044465;28;20052;-68
2023/04/04 12:00:32;;;;;;;4.85;3.13;;;;;;;;;;5027514;28;20131;-67
2023/04/04 12:02:58;;;;;;;5.70;3.50;;;;;;;;;;5048082;28;20129;-67
2023/04/04 12:05:26;;;;;;;5.93;3.35;;;;;;;;;;5030194;28;20182;-67
2023/04/04 12:07:53;;;;;;;6.25;3.58;;;;;;;;;;5025200;28;20826;-67
2023/04/04 12:10:19;;;;;;;6.38;3.28;;;;;;;;;;5048231;28;20498;-67
2023/04/04 12:12:45;;;;;;;5.80;3.58;;;;;;;;;;5047597;28;20452;-67
2023/04/04 12:15:14;;;;;;;6.38;3.53;;;;;;;;;;5046602;28;20376;-67
2023/04/04 12:17:42;;;;;;;6.20;3.67;;;;;;;;;;5045235;28;20045;-67
2023/04/04 12:20:15;;;;;;;13.95;3.95;;;;;;;;;;5045441;28;20428;-67
2023/04/04 12:22:41;;;;;;;5.68;3.83;;;;;;;;;;5049350;28;20044;-67
2023/04/04 12:25:08;;;;;;;8.55;3.80;;;;;;;;;;5029573;28;20083;-67
2023/04/04 12:27:34;;;;;;;5.60;3.28;;;;;;;;;;5046127;28;20049;-67
2023/04/04 12:30:03;;;;;;;6.95;3.33;;;;;;;;;;5046179;28;20048;-67
2023/04/04 12:32:29;;;;;;;5.22;2.97;;;;;;;;;;5046395;28;20588;-67
2023/04/04 12:35:00;;;;;;;6.00;2.95;;;;;;;;;;5052303;28;20455;-67
2023/04/04 12:37:28;;;;;;;5.57;3.30;;;;;;;;;;5045105;28;20040;-67
2023/04/04 12:39:55;;;;;;;8.38;3.35;;;;;;;;;;5047061;28;20045;-67
2023/04/04 12:42:25;;;;;;;10.32;3.90;;;;;;;;;;5045379;28;20048;-67
2023/04/04 12:44:52;;;;;;;6.22;2.90;;;;;;;;;;5048606;28;20052;-67
2023/04/04 12:47:23;;;;;;;8.02;3.50;;;;;;;;;;5048762;28;20091;-67
2023/04/04 12:49:52;;;;;;;5.55;2.88;;;;;;;;;;5044430;28;20141;-66
2023/04/04 12:52:20;;;;;;;6.32;3.13;;;;;;;;;;5027234;28;20515;-67
2023/04/04 12:54:47;;;;;;;6.13;2.70;;;;;;;;;;5030687;28;20438;-67
2023/04/04 12:57:24;;;;;;;6.13;3.28;;;;;;;;;;5028349;28;20076;-67
2023/04/04 12:59:53;;;;;;;7.60;3.45;;;;;;;;;;5030258;28;20103;-67
2023/04/04 13:02:21;;;;;;;6.47;2.95;;;;;;;;;;5029272;28;20116;-67
2023/04/04 13:04:50;;;;;;;4.80;3.15;;;;;;;;;;5019691;28;20041;-67
2023/04/04 13:07:42;;;;;;;7.13;3.55;;;;;;;;;;5009298;28;20055;-66
2023/04/04 13:10:09;;;;;;;7.82;3.28;;;;;;;;;;5027032;28;20043;-67
2023/04/04 13:12:55;;;;;;;5.60;3.28;;;;;;;;;;5025215;28;20045;-66
2023/04/04 13:15:22;;;;;;;5.05;3.65;;;;;;;;;;5027361;28;20621;-66
2023/04/04 13:17:50;;;;;;;8.60;3.88;;;;;;;;;;5027153;28;20041;-66
2023/04/04 13:20:17;;;;;;;5.32;3.00;;;;;;;;;;5018798;28;20041;-66
2023/04/04 13:22:43;;;;;;;6.15;3.30;;;;;;;;;;5029143;28;20482;-66
2023/04/04 13:25:10;;;;;;;5.68;2.97;;;;;;;;;;5027730;28;20087;-66
2023/04/04 13:27:37;;;;;;;6.55;3.47;;;;;;;;;;4995605;28;20049;-66
2023/04/04 13:30:03;;;;;;;6.88;3.35;;;;;;;;;;5027135;28;20048;-66
2023/04/04 13:32:29;;;;;;;8.98;3.60;;;;;;;;;;5014065;28;20120;-66
2023/04/04 13:34:56;;;;;;;6.32;3.42;;;;;;;;;;5024256;28;20069;-66
2023/04/04 13:37:23;;;;;;;6.32;2.92;;;;;;;;;;5025813;28;20171;-67
2023/04/04 13:39:50;;;;;;;7.38;3.50;;;;;;;;;;5014750;28;20384;-67
2023/04/04 13:42:16;;;;;;;5.35;3.40;;;;;;;;;;5028205;28;20056;-67
2023/04/04 13:44:42;;;;;;;5.43;3.15;;;;;;;;;;5021686;28;20080;-67
2023/04/04 13:47:08;;;;;;;6.18;3.10;;;;;;;;;;5027602;28;20105;-67
2023/04/04 13:49:34;;;;;;;4.85;3.15;;;;;;;;;;5013078;28;20585;-67
2023/04/04 13:52:01;;;;;;;7.03;3.42;;;;;;;;;;5023122;28;20514;-67
2023/04/04 13:54:27;;;;;;;5.00;3.15;;;;;;;;;;5014565;28;20050;-67
2023/04/04 13:56:53;;;;;;;6.38;2.90;;;;;;;;;;5021781;28;20033;-69
2023/04/04 13:59:19;;;;;;;4.25;2.88;;;;;;;;;;5030510;28;20445;-67
2023/04/04 14:01:46;;;;;;;4.90;2.80;;;;;;;;;;5021998;28;20037;-67
2023/04/04 14:04:12;;;;;;;6.53;3.13;;;;;;;;;;5016732;28;20284;-67
2023/04/04 14:06:38;;;;;;;5.07;2.83;;;;;;;;;;5025143;28;20084;-67
2023/04/04 14:09:04;;;;;;;5.22;3.05;;;;;;;;;;5017122;28;20132;-67
2023/04/04 14:11:30;;;;;;;5.20;2.92;;;;;;;;;;5000664;28;20121;-67
2023/04/04 14:13:57;;;;;;;5.95;2.80;;;;;;;;;;5004539;28;20045;-67
2023/04/04 14:16:23;;;;;;;7.13;3.53;;;;;;;;;;5021275;28;20049;-67
2023/04/04 14:18:49;;;;;;;7.43;3.95;;;;;;;;;;5015390;28;20483;-67
2023/04/04 14:21:15;;;;;;;7.57;3.17;;;;;;;;;;5022488;28;20045;-67
2023/04/04 14:23:41;;;;;;;5.07;2.90;;;;;;;;;;5019002;28;20077;-67
2023/04/04 14:26:08;;;;;;;8.32;3.88;;;;;;;;;;5023837;28;20100;-67
2023/04/04 14:28:34;;;;;;;6.40;2.92;;;;;;;;;;5029473;28;20049;-67
2023/04/04 14:31:00;;;;;;;5.07;3.17;;;;;;;;;;5024901;28;20034;-66
2023/04/04 14:33:26;;;;;;;9.43;3.42;;;;;;;;;;5024681;28;20038;-67
2023/04/04 14:35:53;;;;;;;3.80;2.67;;;;;;;;;;5026743;28;20041;-67
2023/04/04 14:38:19;;;;;;;3.80;2.67;;;;;;;;;;5031456;28;20025;-67
2023/04/04 14:40:45;;;;;;;4.72;3.10;;;;;;;;;;5030400;28;20042;-67
2023/04/04 14:43:11;;;;;;;7.03;3.55;;;;;;;;;;5028358;28;20080;-67